createdAt,value
2022-11-06T00:04:21.386Z,93620.42
2022-11-06T00:09:28.372Z,93616.45
2022-11-06T00:14:35.157Z,93614.53
2022-11-06T00:19:41.933Z,93623.27
2022-11-06T00:24:50.312Z,93623.56
2022-11-06T00:29:57.221Z,93630.92
2022-11-06T00:35:03.919Z,93633.20
2022-11-06T00:40:12.541Z,93635.18
2022-11-06T00:45:19.358Z,93635.95
2022-11-06T00:50:27.257Z,93634.77
2022-11-06T00:55:34.284Z,93629.90
2022-11-06T01:00:41.145Z,93633.36
2022-11-06T01:05:48.150Z,93634.89
2022-11-06T01:10:54.919Z,93627.97
2022-11-06T01:16:02.103Z,93631.16
2022-11-06T01:21:12.394Z,93628.22
2022-11-06T01:26:36.861Z,93631.19
2022-11-06T01:31:31.876Z,93628.62
2022-11-06T01:36:38.837Z,93638.02
2022-11-06T01:41:50.391Z,93636.00
2022-11-06T01:46:57.919Z,93651.51
2022-11-06T01:52:09.062Z,93647.05
2022-11-06T01:57:16.050Z,93649.59
2022-11-06T02:02:23.512Z,93642.53
2022-11-06T02:07:30.609Z,93636.91
2022-11-06T02:12:47.458Z,93640.68
2022-11-06T02:18:07.571Z,93634.01
2022-11-06T02:23:42.509Z,93630.48
2022-11-06T02:28:51.061Z,93627.69
2022-11-06T02:34:01.245Z,93636.39
2022-11-06T02:39:11.652Z,93649.75
2022-11-06T02:44:21.954Z,93638.44
2022-11-06T02:49:48.004Z,93638.38
2022-11-06T02:54:59.179Z,93645.52
2022-11-06T03:00:12.346Z,93640.58
2022-11-06T03:05:37.575Z,93649.34
2022-11-06T03:11:09.578Z,93646.38
2022-11-06T03:16:26.714Z,93651.09
2022-11-06T03:21:37.902Z,93652.02
2022-11-06T03:26:53.536Z,93654.77
2022-11-06T03:32:07.451Z,93661.52
2022-11-06T03:37:15.964Z,93668.25
2022-11-06T03:42:30.747Z,93673.91
2022-11-06T03:47:42.129Z,93679.33
2022-11-06T03:52:58.957Z,93678.39
2022-11-06T03:58:21.694Z,93683.66
2022-11-06T04:03:35.533Z,93687.80
2022-11-06T04:09:00.826Z,93688.06
2022-11-06T04:14:08.905Z,93695.30
2022-11-06T04:19:21.898Z,93696.03
2022-11-06T04:25:07.941Z,93683.66
2022-11-06T04:30:18.261Z,93697.20
2022-11-06T04:35:40.966Z,93695.75
2022-11-06T04:41:13.100Z,93687.73
2022-11-06T04:46:26.993Z,93693.00
2022-11-06T04:51:34.753Z,93698.27
2022-11-06T04:56:45.764Z,93700.42
2022-11-06T05:01:49.456Z,93704.07
2022-11-06T05:06:56.247Z,93696.34
2022-11-06T05:12:02.942Z,93699.88
2022-11-06T05:17:33.916Z,93695.83
2022-11-06T05:23:01.119Z,93693.81
2022-11-06T05:28:09.982Z,93700.33
2022-11-06T05:33:16.808Z,93703.63
2022-11-06T05:51:06.889Z,93711.00
2022-11-06T05:56:13.777Z,93709.29
2022-11-06T06:01:35.652Z,93707.66
2022-11-06T06:22:26.837Z,93735.81
2022-11-06T06:27:35.788Z,93750.92
2022-11-06T06:32:42.445Z,93750.25
2022-11-06T06:37:58.252Z,93750.25
2022-11-06T06:43:04.870Z,93749.92
2022-11-06T06:48:11.936Z,93753.95
2022-11-06T06:53:18.963Z,93753.31
2022-11-06T06:58:26.024Z,93760.06
2022-11-06T07:03:34.228Z,93760.01
2022-11-06T07:08:41.037Z,93765.80
2022-11-06T07:13:47.725Z,93765.44
2022-11-06T07:18:54.770Z,93763.20
2022-11-06T07:24:02.408Z,93766.46
2022-11-06T07:29:11.098Z,93763.22
2022-11-06T07:34:17.963Z,93771.33
2022-11-06T07:39:24.990Z,93767.73
2022-11-06T07:44:32.110Z,93765.00
2022-11-06T07:49:38.997Z,93768.33
2022-11-06T07:54:46.794Z,93769.16
2022-11-06T07:59:53.594Z,93768.67
2022-11-06T08:05:00.357Z,93775.19
2022-11-06T08:10:08.329Z,93775.84
2022-11-06T08:15:15.079Z,93775.67
2022-11-06T08:20:21.785Z,93775.12
2022-11-06T08:25:32.423Z,93769.66
2022-11-06T08:30:40.153Z,93763.69
2022-11-06T08:35:46.817Z,93768.69
2022-11-06T08:40:54.068Z,93761.58
2022-11-06T08:46:02.928Z,93753.59
2022-11-06T08:51:11.583Z,93758.66
2022-11-06T08:56:21.172Z,93756.10
2022-11-06T09:01:28.331Z,93758.98
2022-11-06T09:06:37.165Z,93759.89
2022-11-06T09:11:43.807Z,93756.52
2022-11-06T09:16:50.662Z,93752.81
2022-11-06T09:21:57.379Z,93747.45
2022-11-06T09:27:04.005Z,93748.33
2022-11-06T09:32:11.118Z,93751.84
2022-11-06T09:37:19.049Z,93746.91
2022-11-06T09:42:55.998Z,93735.82
2022-11-06T09:48:07.393Z,93735.28
2022-11-06T09:53:27.692Z,93730.97
2022-11-06T09:58:45.374Z,93728.09
2022-11-06T10:04:07.332Z,93726.73
2022-11-06T10:09:17.813Z,93721.88
2022-11-06T10:14:53.507Z,93718.10
2022-11-06T10:20:26.534Z,93721.45
2022-11-06T10:25:45.927Z,93709.92
2022-11-06T10:30:56.929Z,93704.98
2022-11-06T10:36:17.163Z,93712.57
2022-11-06T10:41:36.180Z,93702.23
2022-11-06T10:46:51.955Z,93691.71
2022-11-06T10:52:21.806Z,93684.38
2022-11-06T10:57:36.044Z,93676.89
2022-11-06T11:02:56.329Z,93671.47
2022-11-06T11:08:03.003Z,93667.55
2022-11-06T11:13:14.135Z,93656.55
2022-11-06T11:18:29.543Z,93657.22
2022-11-06T11:23:36.323Z,93651.17
2022-11-06T11:28:44.852Z,93650.11
2022-11-06T11:33:56.679Z,93648.97
2022-11-06T11:39:04.026Z,93648.28
2022-11-06T11:44:18.741Z,93644.58
2022-11-06T11:49:35.708Z,93652.27
2022-11-06T11:54:43.199Z,93650.38
2022-11-06T11:59:57.644Z,93647.73
2022-11-06T12:05:07.930Z,93646.63
2022-11-06T12:10:39.063Z,93628.41
2022-11-06T12:16:09.402Z,93613.57
2022-11-06T12:21:29.793Z,93612.77
2022-11-06T12:26:50.890Z,93605.59
2022-11-06T12:32:35.498Z,93604.31
2022-11-06T12:38:18.134Z,93591.85
2022-11-06T12:43:47.420Z,93588.94
2022-11-06T12:49:26.831Z,93589.73
2022-11-06T12:55:19.059Z,93590.03
2022-11-06T13:00:31.878Z,93586.29
2022-11-06T13:05:55.276Z,93586.02
2022-11-06T13:11:33.343Z,93569.59
2022-11-06T13:17:17.539Z,93561.67
2022-11-06T13:22:34.334Z,93581.00
2022-11-06T13:27:57.830Z,93584.98
2022-11-06T13:33:24.178Z,93596.09
2022-11-06T13:38:44.114Z,93601.13
2022-11-06T13:44:07.000Z,93605.33
2022-11-06T13:49:43.753Z,93590.02
2022-11-06T13:55:19.861Z,93582.30
2022-11-06T14:01:10.230Z,93584.92
2022-11-06T14:06:26.374Z,93585.45
2022-11-06T14:11:37.654Z,93585.91
2022-11-06T14:16:48.645Z,93580.98
2022-11-06T14:22:00.335Z,93572.19
2022-11-06T14:27:14.307Z,93571.16
2022-11-06T14:32:34.866Z,93570.02
2022-11-06T14:37:51.691Z,93565.38
2022-11-06T14:42:59.041Z,93567.30
2022-11-06T14:48:07.123Z,93571.34
2022-11-06T14:53:30.704Z,93571.13
2022-11-06T14:58:43.682Z,93565.30
2022-11-06T15:04:00.729Z,93570.14
2022-11-06T15:09:14.841Z,93571.79
2022-11-06T15:14:23.704Z,93564.20
2022-11-06T15:19:34.626Z,93556.63
2022-11-06T15:24:56.933Z,93570.72
2022-11-06T15:30:06.955Z,93568.81
2022-11-06T15:35:28.293Z,93566.62
2022-11-06T15:40:38.445Z,93566.38
2022-11-06T15:45:45.298Z,93557.30
2022-11-06T15:50:53.180Z,93557.77
2022-11-06T15:56:11.791Z,93547.44
2022-11-06T16:01:23.065Z,93538.09
2022-11-06T16:06:31.682Z,93550.00
2022-11-06T16:11:39.584Z,93549.98
2022-11-06T16:16:51.174Z,93559.14
2022-11-06T16:22:14.086Z,93556.69
2022-11-06T16:27:25.257Z,93570.05
2022-11-06T16:32:42.602Z,93565.17
2022-11-06T16:37:50.362Z,93557.05
2022-11-06T16:43:07.263Z,93559.08
2022-11-06T16:48:22.366Z,93562.49
2022-11-06T16:53:37.880Z,93573.39
2022-11-06T16:58:59.414Z,93577.02
2022-11-06T17:04:13.846Z,93573.78
2022-11-06T17:09:31.082Z,93575.45
2022-11-06T17:14:44.439Z,93582.15
2022-11-06T17:20:00.720Z,93583.81
2022-11-06T17:25:14.871Z,93590.65
2022-11-06T17:30:25.669Z,93584.91
2022-11-06T17:35:45.264Z,93592.52
2022-11-06T17:41:01.599Z,93582.45
2022-11-06T17:46:20.661Z,93585.83
2022-11-06T17:51:56.181Z,93582.72
2022-11-06T17:57:11.533Z,93587.72
2022-11-06T18:02:55.332Z,93589.58
2022-11-06T18:07:49.688Z,93591.01
2022-11-06T18:13:06.736Z,93584.42
2022-11-06T18:18:26.320Z,93587.45
2022-11-06T18:23:49.499Z,93577.86
2022-11-06T18:29:06.761Z,93581.53
2022-11-06T18:34:24.899Z,93572.47
2022-11-06T18:39:45.206Z,93578.54
2022-11-06T18:45:05.310Z,93585.40
2022-11-06T18:50:19.147Z,93582.98
2022-11-06T18:55:35.892Z,93589.56
2022-11-06T19:01:01.430Z,93596.96
2022-11-06T19:06:15.402Z,93591.50
2022-11-06T19:11:34.690Z,93593.42
2022-11-06T19:16:54.800Z,93593.36
2022-11-06T19:22:12.132Z,93593.05
2022-11-06T19:27:30.190Z,93592.33
2022-11-06T19:32:50.487Z,93590.53
2022-11-06T19:38:05.879Z,93600.85
2022-11-06T19:43:27.131Z,93600.60
2022-11-06T19:48:46.351Z,93611.03
2022-11-06T19:54:05.353Z,93603.18
2022-11-06T19:59:20.681Z,93607.05
2022-11-06T20:04:40.035Z,93605.95
2022-11-06T20:09:59.780Z,93610.42
2022-11-06T20:15:12.495Z,93612.69
2022-11-06T20:20:28.696Z,93615.35
2022-11-06T20:25:49.008Z,93606.11
2022-11-06T20:31:06.233Z,93606.83
2022-11-06T20:36:27.331Z,93609.45
2022-11-06T20:41:48.625Z,93613.50
2022-11-06T20:47:05.632Z,93614.37
2022-11-06T20:52:23.922Z,93612.86
2022-11-06T20:57:44.332Z,93608.83
2022-11-06T21:03:02.231Z,93608.05
2022-11-06T21:08:20.702Z,93608.66
2022-11-06T21:13:39.008Z,93613.50
2022-11-06T21:18:57.556Z,93603.44
2022-11-06T21:24:11.666Z,93602.83
2022-11-06T21:29:21.165Z,93602.53
2022-11-06T21:34:29.755Z,93589.33
2022-11-06T21:39:37.442Z,93589.57
2022-11-06T21:44:44.870Z,93595.84
2022-11-06T21:49:58.158Z,93590.33
2022-11-06T21:55:22.342Z,93592.84
2022-11-06T22:00:30.423Z,93595.58
2022-11-06T22:05:37.261Z,93593.23
2022-11-06T22:10:44.848Z,93595.74
2022-11-06T22:15:51.528Z,93593.76
2022-11-06T22:21:11.212Z,93587.34
2022-11-06T22:26:25.986Z,93585.22
2022-11-06T22:31:33.431Z,93581.05
2022-11-06T22:36:41.588Z,93584.11
2022-11-06T22:41:49.873Z,93576.30
2022-11-06T22:46:59.571Z,93577.30
2022-11-06T22:52:06.696Z,93578.89
2022-11-06T22:57:14.040Z,93587.66
2022-11-06T23:02:21.594Z,93576.60
2022-11-06T23:07:30.053Z,93586.73
2022-11-06T23:12:37.155Z,93579.51
2022-11-06T23:17:44.925Z,93587.33
2022-11-06T23:22:54.278Z,93586.94
2022-11-06T23:28:03.737Z,93589.26
2022-11-06T23:33:11.406Z,93586.01
2022-11-06T23:38:19.222Z,93583.49
2022-11-06T23:43:27.082Z,93581.80
2022-11-06T23:48:35.953Z,93574.58
2022-11-06T23:53:44.113Z,93570.25
2022-11-06T23:58:51.832Z,93576.92
